KORG

Orange County Airport

Orange, Texas, USA
METAR KORG 190715Z AUTO 00000KT 10SM OVC060 12/12 A3000 RMK AO2 T01150115
Observed Flight Rules
Dec-19 @ 07:15 UTC (16 minutes ago) Visual Flight Rules
Visibility Clouds
10 miles
  • Overcast at 6,000' AGL
Temperatures Readings
Current 12°C / 54°F
Dewpoint 12°C / 54°F
Humidity 100%
Altimeter 30" Hg
Pressure 1016 hPa
Elevation 4
METAR KORG 190715Z AUTO 00000KT 10SM OVC060 12/12 A3000 RMK AO2 T01150115
Observed Flight Rules
Dec-19 @ 07:15 UTC
(16 minutes ago)
VFR
Clouds
  • Overcast at 6,000' AGL
Temperature Dewpoint
12°C / 54°F 12°C / 54°F
Humidity Altimeter Pressure
100% 30" Hg 1016 hPa